createdAt,value
2017-11-20T00:07:58.679Z,20.20
2017-11-20T00:18:01.888Z,21.93
2017-11-20T00:28:05.082Z,22.70
2017-11-20T00:38:09.028Z,17.17
2017-11-20T00:48:12.211Z,12.60
2017-11-20T00:58:15.387Z,23.00
2017-11-20T01:08:18.570Z,15.83
2017-11-20T01:18:22.514Z,23.20
2017-11-20T01:28:26.471Z,27.80
2017-11-20T01:38:30.422Z,17.53
2017-11-20T01:48:34.365Z,21.70
2017-11-20T01:58:37.535Z,18.67
2017-11-20T02:08:40.694Z,18.70
2017-11-20T02:18:43.883Z,14.30
2017-11-20T02:28:47.823Z,21.27
2017-11-20T02:38:50.957Z,14.13
2017-11-20T02:48:54.129Z,20.03
2017-11-20T02:58:58.035Z,11.13
2017-11-20T03:09:01.169Z,13.73
2017-11-20T03:19:04.292Z,14.23
2017-11-20T03:29:07.436Z,16.60
2017-11-20T03:39:10.603Z,14.53
2017-11-20T03:49:14.514Z,10.40
2017-11-20T03:59:17.660Z,16.23
2017-11-20T04:09:20.804Z,14.45
2017-11-20T04:19:23.974Z,15.63
2017-11-20T04:29:27.129Z,13.40
2017-11-20T04:39:30.290Z,14.40
2017-11-20T04:49:33.460Z,19.30
2017-11-20T04:59:36.771Z,18.00
2017-11-20T05:09:39.919Z,12.70
2017-11-20T05:19:43.101Z,12.53
2017-11-20T05:29:46.239Z,20.63
2017-11-20T05:39:50.170Z,21.93
2017-11-20T05:49:53.421Z,20.27
2017-11-20T05:59:56.594Z,20.23
2017-11-20T06:09:59.788Z,16.55
2017-11-20T06:20:02.965Z,15.87
2017-11-20T06:30:06.908Z,21.20
2017-11-20T06:40:10.848Z,23.43
2017-11-20T06:50:14.019Z,25.17
2017-11-20T07:00:17.190Z,33.00
2017-11-20T07:10:20.381Z,20.50
2017-11-20T07:20:24.310Z,19.57
2017-11-20T07:30:45.453Z,27.77
2017-11-20T07:41:06.782Z,21.90
2017-11-20T07:51:09.966Z,20.97
2017-11-20T08:01:13.190Z,34.73
2017-11-20T08:11:16.378Z,29.63
2017-11-20T08:21:19.551Z,33.40
2017-11-20T08:31:22.736Z,29.40
2017-11-20T08:41:26.828Z,39.40
2017-11-20T08:51:30.016Z,35.90
2017-11-20T09:01:33.222Z,29.90
2017-11-20T09:11:36.396Z,34.70
2017-11-20T09:21:39.573Z,36.42
2017-11-20T09:31:42.742Z,29.00
2017-11-20T09:41:45.905Z,35.53
2017-11-20T09:51:49.059Z,31.27
2017-11-20T10:01:52.998Z,36.40
2017-11-20T10:11:56.244Z,40.93
2017-11-20T10:21:59.402Z,26.77
2017-11-20T10:32:03.346Z,32.93
2017-11-20T10:42:07.305Z,35.10
2017-11-20T10:52:11.240Z,36.77
2017-11-20T11:02:14.559Z,36.47
2017-11-20T11:12:17.732Z,34.93
2017-11-20T11:22:20.912Z,33.93
2017-11-20T11:32:24.064Z,32.10
2017-11-20T11:42:27.235Z,33.53
2017-11-20T11:52:30.408Z,29.73
2017-11-20T12:02:34.337Z,34.67
2017-11-20T12:12:37.990Z,19.58
2017-11-20T12:22:41.167Z,30.00
2017-11-20T12:32:44.374Z,23.37
2017-11-20T12:42:47.530Z,28.55
2017-11-20T12:52:50.824Z,41.10
2017-11-20T13:02:53.994Z,23.87
2017-11-20T13:12:57.229Z,34.87
2017-11-20T13:23:00.407Z,27.03
2017-11-20T13:33:03.555Z,18.60
2017-11-20T13:43:07.517Z,21.23
2017-11-20T13:53:11.440Z,30.33
2017-11-20T14:03:14.617Z,23.85
2017-11-20T14:13:18.558Z,29.07
2017-11-20T14:23:21.757Z,28.83
2017-11-20T14:33:24.978Z,35.03
2017-11-20T14:43:28.190Z,29.83
2017-11-20T14:53:32.919Z,35.10
2017-11-20T15:03:36.107Z,34.53
2017-11-20T15:13:40.044Z,31.57
2017-11-20T15:23:43.335Z,29.73
2017-11-20T15:33:46.529Z,35.27
2017-11-20T15:43:49.718Z,35.00
2017-11-20T15:53:53.023Z,35.70
2017-11-20T16:03:56.223Z,36.27
2017-11-20T16:13:59.387Z,42.23
2017-11-20T16:24:02.690Z,34.80
2017-11-20T16:34:06.750Z,39.60
2017-11-20T16:44:10.704Z,43.37
2017-11-20T16:54:13.911Z,51.93
2017-11-20T17:04:17.122Z,52.27
2017-11-20T17:14:20.304Z,51.40
2017-11-20T17:24:23.466Z,65.43
2017-11-20T17:34:26.659Z,56.37
2017-11-20T17:44:29.940Z,42.83
2017-11-20T17:54:33.889Z,59.57
2017-11-20T18:04:37.937Z,61.73
2017-11-20T18:14:41.150Z,52.13
2017-11-20T18:24:44.318Z,53.67
2017-11-20T18:34:48.274Z,51.43
2017-11-20T18:44:52.221Z,46.13
2017-11-20T18:54:55.499Z,43.10
2017-11-20T19:05:13.458Z,44.85
2017-11-20T19:15:16.776Z,34.63
2017-11-20T19:25:19.971Z,39.17
2017-11-20T19:35:23.137Z,41.07
2017-11-20T19:45:26.356Z,39.77
2017-11-20T19:55:29.547Z,38.17
2017-11-20T20:05:33.519Z,40.10
2017-11-20T20:36:41.944Z,25.63
2017-11-20T20:46:45.163Z,28.53
2017-11-20T20:56:48.328Z,24.23
2017-11-20T21:06:56.517Z,25.03
2017-11-20T21:17:00.466Z,26.33
2017-11-20T21:27:03.784Z,26.23
2017-11-20T21:37:07.001Z,25.07
2017-11-20T21:47:10.207Z,21.30
2017-11-20T21:57:13.512Z,18.37
2017-11-20T22:07:16.727Z,12.32
2017-11-20T22:17:19.921Z,10.30
2017-11-20T22:27:23.126Z,10.20
2017-11-20T22:37:26.550Z,12.17
2017-11-20T22:47:29.760Z,8.00
2017-11-20T22:57:32.992Z,6.03
2017-11-20T23:07:36.161Z,6.70
2017-11-20T23:17:39.352Z,6.43
2017-11-20T23:27:42.526Z,3.83
2017-11-20T23:37:45.743Z,3.90
2017-11-20T23:47:48.917Z,5.50
2017-11-20T23:57:52.098Z,5.10
